createdAt,value
2023-02-27T00:01:10.012Z,100301.81
2023-02-27T00:07:12.011Z,100296.09
2023-02-27T00:13:14.086Z,100304.78
2023-02-27T00:19:15.964Z,100300.75
2023-02-27T00:25:18.344Z,100301.34
2023-02-27T00:31:20.342Z,100304.72
2023-02-27T00:37:22.268Z,100308.75
2023-02-27T00:43:24.312Z,100304.44
2023-02-27T00:49:26.291Z,100310.41
2023-02-27T00:55:28.187Z,100317.84
2023-02-27T01:01:30.346Z,100305.44
2023-02-27T01:07:32.423Z,100310.97
2023-02-27T01:13:34.311Z,100308.78
2023-02-27T01:19:36.246Z,100308.47
2023-02-27T01:25:38.388Z,100295.19
2023-02-27T01:31:40.305Z,100299.59
2023-02-27T01:37:42.272Z,100300.34
2023-02-27T01:44:14.575Z,100298.06
2023-02-27T01:50:17.933Z,100299.88
2023-02-27T01:56:30.854Z,100298.69
2023-02-27T02:02:40.706Z,100304.19
2023-02-27T02:08:47.693Z,100304.31
2023-02-27T02:14:49.608Z,100307.91
2023-02-27T02:22:02.695Z,100306.19
2023-02-27T02:29:10.905Z,100310.59
2023-02-27T02:35:40.476Z,100303.84
2023-02-27T02:42:08.028Z,100304.50
2023-02-27T02:48:25.860Z,100307.34
2023-02-27T02:54:48.095Z,100317.75
2023-02-27T03:01:22.087Z,100318.50
2023-02-27T03:07:49.326Z,100323.41
2023-02-27T03:13:59.145Z,100323.06
2023-02-27T03:20:08.810Z,100323.72
2023-02-27T03:26:14.786Z,100325.53
2023-02-27T03:33:19.020Z,100331.94
2023-02-27T03:39:47.110Z,100330.84
2023-02-27T03:46:01.605Z,100326.28
2023-02-27T03:52:03.960Z,100337.19
2023-02-27T03:58:06.108Z,100324.84
2023-02-27T04:04:16.732Z,100331.19
2023-02-27T04:10:21.336Z,100335.59
2023-02-27T04:17:11.250Z,100336.44
2023-02-27T04:23:37.536Z,100345.47
2023-02-27T04:30:26.396Z,100354.00
2023-02-27T04:36:48.848Z,100348.34
2023-02-27T04:42:54.959Z,100356.22
2023-02-27T04:49:21.542Z,100367.13
2023-02-27T04:56:00.181Z,100365.44
2023-02-27T05:02:25.122Z,100373.47
2023-02-27T05:09:05.552Z,100370.84
2023-02-27T05:15:18.391Z,100379.94
2023-02-27T05:21:38.219Z,100378.94
2023-02-27T05:27:59.617Z,100385.53
2023-02-27T05:34:12.951Z,100377.88
2023-02-27T05:40:25.158Z,100388.53
2023-02-27T05:46:33.214Z,100385.16
2023-02-27T05:52:37.776Z,100393.09
2023-02-27T05:58:46.459Z,100395.28
2023-02-27T06:04:48.418Z,100406.38
2023-02-27T06:10:50.316Z,100408.41
2023-02-27T06:16:52.277Z,100407.88
2023-02-27T06:22:54.253Z,100420.84
2023-02-27T06:28:56.144Z,100427.22
2023-02-27T06:34:58.162Z,100433.16
2023-02-27T06:41:00.601Z,100443.34
2023-02-27T06:47:02.842Z,100450.63
2023-02-27T06:53:04.776Z,100458.94
2023-02-27T06:59:06.708Z,100457.94
2023-02-27T07:05:09.471Z,100466.16
2023-02-27T07:11:11.375Z,100463.03
2023-02-27T07:17:13.308Z,100466.00
2023-02-27T07:23:15.179Z,100457.97
2023-02-27T07:29:17.236Z,100471.69
2023-02-27T07:35:19.503Z,100474.75
2023-02-27T07:41:30.392Z,100476.59
2023-02-27T07:47:32.749Z,100482.44
2023-02-27T07:53:34.823Z,100481.22
2023-02-27T07:59:36.754Z,100486.56
2023-02-27T08:05:38.629Z,100498.59
2023-02-27T08:11:40.584Z,100500.50
2023-02-27T08:17:42.548Z,100499.75
2023-02-27T08:23:44.431Z,100505.72
2023-02-27T08:29:46.346Z,100505.56
2023-02-27T08:35:48.380Z,100518.38
2023-02-27T08:41:52.632Z,100521.19
2023-02-27T08:47:54.568Z,100522.91
2023-02-27T08:53:58.946Z,100525.72
2023-02-27T09:00:01.035Z,100536.00
2023-02-27T09:06:03.246Z,100531.41
2023-02-27T09:12:05.530Z,100513.47
2023-02-27T09:18:07.710Z,100513.94
2023-02-27T09:24:19.166Z,100519.09
2023-02-27T09:30:23.374Z,100515.41
2023-02-27T09:36:25.986Z,100518.97
2023-02-27T09:42:45.459Z,100516.44
2023-02-27T09:49:01.876Z,100508.41
2023-02-27T09:55:12.156Z,100499.22
2023-02-27T10:01:35.246Z,100510.97
2023-02-27T10:08:07.021Z,100508.81
2023-02-27T10:14:42.025Z,100510.31
2023-02-27T10:20:55.805Z,100522.69
2023-02-27T10:27:01.394Z,100527.84
2023-02-27T10:33:32.914Z,100520.84
2023-02-27T10:39:57.257Z,100532.16
2023-02-27T10:46:10.427Z,100523.91
2023-02-27T10:52:15.659Z,100521.88
2023-02-27T10:58:24.240Z,100520.25
2023-02-27T11:04:26.066Z,100518.19
2023-02-27T11:10:28.923Z,100507.38
2023-02-27T11:16:50.657Z,100502.91
2023-02-27T11:23:13.579Z,100500.44
2023-02-27T11:29:20.297Z,100503.31
2023-02-27T11:35:36.870Z,100492.63
2023-02-27T11:41:44.732Z,100490.81
2023-02-27T11:47:52.987Z,100488.56
2023-02-27T11:54:29.963Z,100481.50
2023-02-27T12:00:39.895Z,100471.72
2023-02-27T12:07:05.227Z,100480.03
2023-02-27T12:13:27.460Z,100481.00
2023-02-27T12:19:57.112Z,100465.88
2023-02-27T12:26:19.022Z,100463.50
2023-02-27T12:32:31.329Z,100472.38
2023-02-27T12:38:35.797Z,100466.66
2023-02-27T12:45:14.937Z,100469.19
2023-02-27T12:51:51.239Z,100452.91
2023-02-27T12:58:12.832Z,100458.59
2023-02-27T13:04:49.844Z,100467.50
2023-02-27T13:11:00.273Z,100458.06
2023-02-27T13:17:22.211Z,100449.63
2023-02-27T13:24:04.522Z,100447.88
2023-02-27T13:30:40.026Z,100455.63
2023-02-27T13:36:55.398Z,100464.72
2023-02-27T13:43:02.025Z,100461.38
2023-02-27T13:49:20.080Z,100449.59
2023-02-27T13:55:36.917Z,100467.41
2023-02-27T14:01:39.601Z,100475.47
2023-02-27T14:07:58.633Z,100469.72
2023-02-27T14:14:04.376Z,100462.22
2023-02-27T14:20:11.999Z,100478.09
2023-02-27T14:26:21.056Z,100474.38
2023-02-27T14:32:30.470Z,100478.75
2023-02-27T14:38:35.338Z,100475.56
2023-02-27T14:44:43.565Z,100474.41
2023-02-27T14:50:45.537Z,100464.09
2023-02-27T14:57:04.466Z,100465.72
2023-02-27T15:03:49.759Z,100475.03
2023-02-27T15:09:58.950Z,100479.25
2023-02-27T15:16:35.490Z,100481.56
2023-02-27T15:22:40.062Z,100482.00
2023-02-27T15:28:42.932Z,100483.75
2023-02-27T15:34:46.729Z,100489.47
2023-02-27T15:40:49.057Z,100475.47
2023-02-27T15:46:52.445Z,100486.19
2023-02-27T15:53:12.081Z,100490.78
2023-02-27T15:59:18.113Z,100494.16
2023-02-27T16:05:41.519Z,100492.63
2023-02-27T16:11:43.524Z,100499.72
2023-02-27T16:18:09.434Z,100499.75
2023-02-27T16:24:40.978Z,100505.84
2023-02-27T16:30:43.221Z,100503.38
2023-02-27T16:37:04.225Z,100515.91
2023-02-27T16:43:06.220Z,100521.97
2023-02-27T16:49:24.614Z,100524.06
2023-02-27T16:55:27.225Z,100531.56
2023-02-27T17:01:29.144Z,100527.00
2023-02-27T17:07:31.204Z,100541.63
2023-02-27T17:13:36.121Z,100545.25
2023-02-27T17:19:38.998Z,100552.28
2023-02-27T17:25:42.351Z,100546.63
2023-02-27T17:31:45.012Z,100555.78
2023-02-27T17:37:46.949Z,100558.56
2023-02-27T17:43:56.843Z,100566.53
2023-02-27T17:49:58.966Z,100565.28
2023-02-27T17:56:00.929Z,100568.59
2023-02-27T18:02:02.830Z,100574.59
2023-02-27T18:08:05.039Z,100575.66
2023-02-27T18:14:06.938Z,100570.25
2023-02-27T18:20:10.132Z,100581.78
2023-02-27T18:26:29.400Z,100586.09
2023-02-27T18:32:32.569Z,100592.47
2023-02-27T18:38:34.453Z,100592.81
2023-02-27T18:44:38.469Z,100594.00
2023-02-27T18:50:40.363Z,100594.97
2023-02-27T18:56:42.342Z,100602.22
2023-02-27T19:02:45.063Z,100593.94
2023-02-27T19:08:47.046Z,100602.22
2023-02-27T19:14:49.548Z,100590.97
2023-02-27T19:20:51.407Z,100594.78
2023-02-27T19:26:53.702Z,100586.41
2023-02-27T19:32:55.627Z,100588.44
2023-02-27T19:38:58.456Z,100594.00
2023-02-27T19:45:00.365Z,100585.38
2023-02-27T19:51:07.949Z,100594.81
2023-02-27T19:57:10.003Z,100588.72
2023-02-27T20:03:11.895Z,100601.22
2023-02-27T20:09:17.672Z,100599.03
2023-02-27T20:15:19.708Z,100604.84
2023-02-27T20:21:24.140Z,100608.44
2023-02-27T20:27:27.476Z,100612.13
2023-02-27T20:33:29.370Z,100606.41
2023-02-27T20:39:31.282Z,100608.00
2023-02-27T20:45:38.151Z,100601.78
2023-02-27T20:51:40.548Z,100609.19
2023-02-27T20:57:42.760Z,100612.84
2023-02-27T21:03:46.811Z,100607.72
2023-02-27T21:09:49.955Z,100612.56
2023-02-27T21:15:51.918Z,100611.66
2023-02-27T21:21:54.070Z,100604.00
2023-02-27T21:28:02.149Z,100611.78
2023-02-27T21:34:07.717Z,100620.00
2023-02-27T21:40:10.762Z,100612.81
2023-02-27T21:46:13.556Z,100626.84
2023-02-27T21:52:15.759Z,100624.00
2023-02-27T21:58:17.658Z,100623.28
2023-02-27T22:04:20.256Z,100609.94
2023-02-27T22:10:22.161Z,100613.06
2023-02-27T22:16:24.695Z,100613.69
2023-02-27T22:22:26.658Z,100613.06
2023-02-27T22:28:31.092Z,100618.41
2023-02-27T22:34:32.989Z,100610.91
2023-02-27T22:40:36.126Z,100618.25
2023-02-27T22:46:43.059Z,100623.50
2023-02-27T22:52:44.982Z,100628.38
2023-02-27T22:58:47.860Z,100631.53
2023-02-27T23:04:49.838Z,100636.31
2023-02-27T23:10:51.796Z,100641.19
2023-02-27T23:16:53.709Z,100645.31
2023-02-27T23:22:55.623Z,100643.25
2023-02-27T23:28:57.842Z,100644.97
2023-02-27T23:34:59.919Z,100654.16
2023-02-27T23:41:07.413Z,100662.66
2023-02-27T23:47:09.394Z,100659.47
2023-02-27T23:53:13.581Z,100658.38
2023-02-27T23:59:15.618Z,100653.41
